Terminal Aerodrome Forecast
Issued by NWS

Home | Current Version | Previous Version | Graphics & Text | Print | Product List | Glossary On
Versions: 1 2 3 4 5 6 7 8 9 10 11 12 13
076
FTUS43 KIWX 281740
TAFSBN
TAF
KSBN 281740Z 2818/2918 05007KT P6SM VCSH OVC070
     FM290300 03009KT P6SM VCSH OVC025
     FM291100 03009KT 5SM BR OVC015=

USA.gov is the U.S. government's official web portal to all federal, state and local government web resources and services.